createdAt,value
2023-01-27T00:00:02.393Z,81.57
2023-01-27T00:01:06.891Z,81.48
2023-01-27T00:02:08.424Z,81.20
2023-01-27T00:03:24.825Z,81.49
2023-01-27T00:04:47.657Z,81.27
2023-01-27T00:06:12.021Z,81.48
2023-01-27T00:07:35.005Z,81.24
2023-01-27T00:08:57.453Z,81.23
2023-01-27T00:10:20.124Z,81.20
2023-01-27T00:12:00.166Z,81.23
2023-01-27T00:13:28.370Z,81.27
2023-01-27T00:14:50.812Z,81.19
2023-01-27T00:16:12.378Z,81.12
2023-01-27T00:17:35.181Z,81.06
2023-01-27T00:18:57.653Z,81.12
2023-01-27T00:20:42.668Z,80.69
2023-01-27T00:22:22.597Z,80.91
2023-01-27T00:24:02.687Z,80.71
2023-01-27T00:25:25.212Z,80.68
2023-01-27T00:26:46.716Z,80.63
2023-01-27T00:28:09.174Z,80.73
2023-01-27T00:29:31.666Z,80.62
2023-01-27T00:30:53.428Z,80.63
2023-01-27T00:32:33.680Z,80.66
2023-01-27T00:34:01.840Z,80.56
2023-01-27T00:35:26.476Z,80.65
2023-01-27T00:36:49.442Z,80.58
2023-01-27T00:38:10.977Z,80.42
2023-01-27T00:39:33.513Z,80.38
2023-01-27T00:41:19.792Z,80.52
2023-01-27T00:42:43.642Z,80.03
2023-01-27T00:44:06.376Z,80.40
2023-01-27T00:45:51.104Z,80.48
2023-01-27T00:47:13.698Z,80.39
2023-01-27T00:48:37.431Z,80.42
2023-01-27T00:49:59.926Z,80.28
2023-01-27T00:51:24.261Z,80.13
2023-01-27T00:52:46.383Z,80.18
2023-01-27T00:54:09.471Z,80.30
2023-01-27T00:55:31.975Z,80.19
2023-01-27T00:56:53.530Z,80.23
2023-01-27T00:58:16.489Z,80.00
2023-01-27T00:59:37.985Z,79.91
2023-01-27T01:01:02.315Z,80.00
2023-01-27T01:02:25.125Z,80.21
2023-01-27T01:03:46.994Z,79.92
2023-01-27T01:05:10.090Z,79.84
2023-01-27T01:06:34.003Z,79.85
2023-01-27T01:07:55.527Z,79.95
2023-01-27T01:09:18.011Z,79.80
2023-01-27T01:10:39.562Z,80.15
2023-01-27T01:12:02.039Z,79.89
2023-01-27T01:13:23.560Z,80.02
2023-01-27T01:14:46.115Z,79.74
2023-01-27T01:16:11.203Z,79.94
2023-01-27T01:17:32.747Z,79.79
2023-01-27T01:18:55.357Z,79.97
2023-01-27T01:20:17.083Z,79.72
2023-01-27T01:21:41.138Z,79.89
2023-01-27T01:23:02.909Z,79.57
2023-01-27T01:24:25.999Z,79.66
2023-01-27T01:25:53.423Z,79.33
2023-01-27T01:27:15.906Z,79.50
2023-01-27T01:28:38.858Z,79.25
2023-01-27T01:30:01.944Z,79.62
2023-01-27T01:31:24.481Z,79.25
2023-01-27T01:32:46.025Z,79.48
2023-01-27T01:34:08.516Z,79.26
2023-01-27T01:35:31.425Z,79.03
2023-01-27T01:36:55.232Z,78.89
2023-01-27T01:38:17.705Z,79.18
2023-01-27T01:39:40.168Z,79.05
2023-01-27T01:41:02.453Z,79.09
2023-01-27T01:42:26.183Z,78.64
2023-01-27T01:43:49.307Z,78.77
2023-01-27T01:45:44.481Z,78.90
2023-01-27T01:47:06.959Z,78.89
2023-01-27T01:48:35.002Z,78.67
2023-01-27T01:49:58.524Z,78.89
2023-01-27T01:51:24.309Z,78.79
2023-01-27T01:52:48.348Z,78.50
2023-01-27T01:54:15.798Z,78.62
2023-01-27T01:55:39.654Z,78.56
2023-01-27T01:57:05.937Z,78.53
2023-01-27T01:58:28.478Z,78.44
2023-01-27T01:59:55.855Z,78.74
2023-01-27T02:01:19.287Z,78.61
2023-01-27T02:02:41.797Z,78.71
2023-01-27T02:04:10.156Z,78.45
2023-01-27T02:05:37.239Z,78.69
2023-01-27T02:07:06.112Z,78.18
2023-01-27T02:08:33.855Z,78.45
2023-01-27T02:09:57.583Z,78.36
2023-01-27T02:11:20.415Z,78.21
2023-01-27T02:12:42.034Z,78.15
2023-01-27T02:14:04.644Z,78.49
2023-01-27T02:15:26.549Z,78.21
2023-01-27T02:16:49.251Z,78.40
2023-01-27T02:18:10.962Z,78.41
2023-01-27T02:19:42.079Z,78.57
2023-01-27T02:21:06.014Z,78.58
2023-01-27T02:22:33.933Z,78.49
2023-01-27T02:24:01.704Z,78.47
2023-01-27T02:25:29.364Z,78.42
2023-01-27T02:26:53.337Z,78.30
2023-01-27T02:28:14.857Z,78.47
2023-01-27T02:29:37.346Z,78.52
2023-01-27T02:30:59.140Z,78.57
2023-01-27T02:32:25.934Z,78.61
2023-01-27T02:33:48.428Z,78.45
2023-01-27T02:35:16.350Z,78.42
2023-01-27T02:36:42.191Z,78.87
2023-01-27T02:38:06.756Z,78.63
2023-01-27T02:39:36.487Z,78.73
2023-01-27T02:41:04.873Z,78.49
2023-01-27T02:42:28.681Z,78.55
2023-01-27T02:43:52.689Z,78.68
2023-01-27T02:45:15.587Z,78.62
2023-01-27T02:46:38.779Z,78.32
2023-01-27T02:48:00.773Z,78.46
2023-01-27T02:49:23.272Z,78.33
2023-01-27T02:50:44.780Z,78.39
2023-01-27T02:52:07.264Z,78.44
2023-01-27T02:53:28.757Z,78.31
2023-01-27T02:54:51.230Z,78.54
2023-01-27T02:56:13.842Z,78.27
2023-01-27T02:57:36.824Z,78.31
2023-01-27T02:58:59.385Z,78.41
2023-01-27T03:00:21.244Z,78.23
2023-01-27T03:01:43.761Z,78.13
2023-01-27T03:03:05.337Z,78.37
2023-01-27T03:04:27.833Z,78.41
2023-01-27T03:05:50.821Z,78.04
2023-01-27T03:07:13.313Z,78.06
2023-01-27T03:08:35.796Z,78.01
2023-01-27T03:09:57.307Z,77.78
2023-01-27T03:11:39.781Z,77.90
2023-01-27T03:12:44.525Z,77.65
2023-01-27T03:13:46.961Z,77.70
2023-01-27T03:15:08.285Z,77.43
2023-01-27T03:16:29.992Z,77.08
2023-01-27T03:17:50.153Z,77.04
2023-01-27T03:18:56.287Z,77.06
2023-01-27T03:19:57.820Z,77.09
2023-01-27T03:21:02.868Z,77.45
2023-01-27T03:22:04.400Z,77.00
2023-01-27T03:23:19.030Z,77.01
2023-01-27T03:24:21.039Z,77.17
2023-01-27T03:25:23.571Z,77.22
2023-01-27T03:26:25.059Z,76.77
2023-01-27T03:27:28.507Z,76.87
2023-01-27T03:28:31.760Z,76.89
2023-01-27T03:29:52.867Z,77.17
2023-01-27T03:31:00.679Z,77.03
2023-01-27T03:32:02.331Z,76.80
2023-01-27T03:33:14.832Z,76.97
2023-01-27T03:34:16.344Z,76.92
2023-01-27T03:35:19.111Z,76.69
2023-01-27T03:36:39.511Z,76.81
2023-01-27T03:37:59.855Z,77.02
2023-01-27T03:39:30.239Z,77.14
2023-01-27T03:41:00.496Z,77.14
2023-01-27T03:42:20.773Z,77.04
2023-01-27T03:43:40.833Z,77.33
2023-01-27T03:45:02.480Z,77.00
2023-01-27T03:46:22.150Z,77.06
2023-01-27T03:47:24.181Z,77.04
2023-01-27T03:48:28.237Z,77.18
2023-01-27T03:49:30.704Z,77.02
2023-01-27T03:50:37.217Z,77.05
2023-01-27T03:51:39.699Z,77.34
2023-01-27T03:52:41.591Z,77.37
2023-01-27T03:53:44.075Z,77.37
2023-01-27T03:54:45.612Z,77.25
2023-01-27T03:55:57.194Z,77.28
2023-01-27T03:57:05.778Z,77.20
2023-01-27T03:58:21.588Z,77.40
2023-01-27T03:59:27.392Z,77.45
2023-01-27T04:00:32.522Z,77.31
2023-01-27T04:01:36.449Z,77.30
2023-01-27T04:02:56.880Z,77.50
2023-01-27T04:04:16.886Z,77.45
2023-01-27T04:05:46.617Z,77.29
2023-01-27T04:06:57.977Z,77.18
2023-01-27T04:08:06.946Z,77.58
2023-01-27T04:09:11.687Z,77.51
2023-01-27T04:10:13.182Z,77.46
2023-01-27T04:11:44.884Z,77.55
2023-01-27T04:12:49.855Z,77.58
2023-01-27T04:14:01.768Z,77.58
2023-01-27T04:15:04.743Z,77.83
2023-01-27T04:16:07.790Z,77.86
2023-01-27T04:17:12.664Z,77.91
2023-01-27T04:18:14.189Z,77.93
2023-01-27T04:19:26.107Z,77.85
2023-01-27T04:20:37.637Z,78.12
2023-01-27T04:21:41.228Z,77.75
2023-01-27T04:22:44.065Z,78.15
2023-01-27T04:23:45.585Z,78.13
2023-01-27T04:24:48.369Z,78.18
2023-01-27T04:26:00.320Z,78.33
2023-01-27T04:27:04.717Z,78.19
2023-01-27T04:28:06.442Z,78.42
2023-01-27T04:29:08.910Z,78.25
2023-01-27T04:30:12.608Z,78.67
2023-01-27T04:31:16.804Z,78.58
2023-01-27T04:32:19.611Z,78.77
2023-01-27T04:33:21.108Z,78.80
2023-01-27T04:34:23.647Z,78.60
2023-01-27T04:35:30.748Z,78.83
2023-01-27T04:36:41.133Z,78.55
2023-01-27T04:37:42.623Z,79.03
2023-01-27T04:38:45.929Z,79.17
2023-01-27T04:39:48.403Z,79.08
2023-01-27T04:40:49.905Z,78.91
2023-01-27T04:42:02.432Z,78.93
2023-01-27T04:43:04.512Z,79.06
2023-01-27T04:44:08.157Z,79.16
2023-01-27T04:45:10.176Z,79.25
2023-01-27T04:46:12.836Z,79.06
2023-01-27T04:47:15.847Z,79.34
2023-01-27T04:48:18.747Z,79.23
2023-01-27T04:49:20.279Z,79.74
2023-01-27T04:50:22.728Z,79.74
2023-01-27T04:51:24.585Z,79.78
2023-01-27T04:52:27.138Z,79.85
2023-01-27T04:53:28.712Z,79.59
2023-01-27T04:54:31.418Z,79.64
2023-01-27T04:55:32.949Z,80.00
2023-01-27T04:56:37.740Z,79.94
2023-01-27T04:57:39.281Z,79.99
2023-01-27T04:58:52.482Z,80.03
2023-01-27T04:59:54.011Z,80.36
2023-01-27T05:00:56.484Z,80.19
2023-01-27T05:01:59.117Z,80.35
2023-01-27T05:03:05.103Z,80.41
2023-01-27T05:04:13.863Z,80.53
2023-01-27T05:05:16.384Z,80.71
2023-01-27T05:06:18.859Z,80.29
2023-01-27T05:07:20.767Z,80.61
2023-01-27T05:08:23.223Z,80.57
2023-01-27T05:09:25.342Z,80.70
2023-01-27T05:10:27.911Z,80.77
2023-01-27T05:11:29.752Z,80.59
2023-01-27T05:12:32.274Z,80.68
2023-01-27T05:13:34.235Z,80.83
2023-01-27T05:14:36.730Z,80.92
2023-01-27T05:15:41.072Z,80.80
2023-01-27T05:16:43.640Z,80.76
2023-01-27T05:17:45.189Z,81.12
2023-01-27T05:18:50.470Z,81.17
2023-01-27T05:19:51.968Z,81.09
2023-01-27T05:20:54.697Z,80.97
2023-01-27T05:21:56.205Z,81.08
2023-01-27T05:23:19.036Z,81.17
2023-01-27T05:24:21.612Z,81.30
2023-01-27T05:25:23.615Z,81.26
2023-01-27T05:26:36.171Z,81.21
2023-01-27T05:27:37.910Z,81.26
2023-01-27T05:28:42.257Z,81.21
2023-01-27T05:29:43.763Z,81.59
2023-01-27T05:30:46.249Z,81.57
2023-01-27T05:31:48.842Z,81.55
2023-01-27T05:33:00.474Z,81.29
2023-01-27T05:34:04.373Z,81.76
2023-01-27T05:35:06.984Z,81.69
2023-01-27T05:36:12.521Z,81.62
2023-01-27T05:37:14.841Z,81.59
2023-01-27T05:38:17.305Z,81.80
2023-01-27T05:39:19.084Z,81.79
2023-01-27T05:40:21.540Z,81.58
2023-01-27T05:41:24.770Z,81.74
2023-01-27T05:42:26.411Z,81.64
2023-01-27T05:43:30.252Z,82.01
2023-01-27T05:44:32.518Z,81.84
2023-01-27T05:45:35.304Z,81.95
2023-01-27T05:46:40.618Z,81.92
2023-01-27T05:47:43.202Z,82.17
2023-01-27T05:48:47.729Z,82.05
2023-01-27T05:49:50.587Z,82.07
2023-01-27T05:50:56.648Z,81.86
2023-01-27T05:51:59.095Z,82.14
2023-01-27T05:53:07.838Z,82.05
2023-01-27T05:54:11.064Z,82.29
2023-01-27T05:55:12.950Z,81.98
2023-01-27T05:56:17.908Z,82.14
2023-01-27T05:57:19.450Z,82.32
2023-01-27T05:58:22.750Z,82.32
2023-01-27T05:59:25.494Z,82.36
2023-01-27T06:00:27.240Z,82.26
2023-01-27T06:01:34.298Z,82.35
2023-01-27T06:02:35.978Z,82.26
2023-01-27T06:03:39.324Z,82.35
2023-01-27T06:04:40.934Z,82.55
2023-01-27T06:05:56.307Z,82.44
2023-01-27T06:07:03.178Z,82.72
2023-01-27T06:08:05.821Z,82.75
2023-01-27T06:09:08.311Z,82.73
2023-01-27T06:10:11.294Z,82.58
2023-01-27T06:11:15.796Z,82.75
2023-01-27T06:12:22.661Z,82.79
2023-01-27T06:13:25.482Z,82.91
2023-01-27T06:14:27.049Z,82.86
2023-01-27T06:15:29.511Z,82.86
2023-01-27T06:16:32.240Z,82.92
2023-01-27T06:17:33.982Z,82.77
2023-01-27T06:18:47.401Z,83.02
2023-01-27T06:19:48.926Z,82.89
2023-01-27T06:20:51.722Z,82.88
2023-01-27T06:21:54.742Z,83.05
2023-01-27T06:22:57.420Z,82.82
2023-01-27T06:23:59.935Z,83.09
2023-01-27T06:25:01.503Z,82.91
2023-01-27T06:26:06.125Z,83.12
2023-01-27T06:27:07.647Z,83.17
2023-01-27T06:28:14.509Z,83.10
2023-01-27T06:29:23.018Z,83.08
2023-01-27T06:30:24.748Z,83.22
2023-01-27T06:31:28.267Z,83.31
2023-01-27T06:32:29.984Z,83.24
2023-01-27T06:33:32.525Z,83.48
2023-01-27T06:34:34.330Z,83.18
2023-01-27T06:35:38.698Z,83.52
2023-01-27T06:36:40.603Z,83.11
2023-01-27T06:37:44.475Z,83.42
2023-01-27T06:38:46.500Z,83.28
2023-01-27T06:39:49.168Z,83.41
2023-01-27T06:40:50.787Z,83.19
2023-01-27T06:41:53.525Z,83.20
2023-01-27T06:42:55.591Z,83.46
2023-01-27T06:43:58.607Z,83.04
2023-01-27T06:45:00.195Z,83.57
2023-01-27T06:46:05.495Z,83.43
2023-01-27T06:47:07.467Z,83.34
2023-01-27T06:48:10.418Z,83.42
2023-01-27T06:49:11.932Z,83.20
2023-01-27T06:50:14.981Z,83.25
2023-01-27T06:51:17.915Z,83.54
2023-01-27T06:52:19.472Z,83.26
2023-01-27T06:53:24.331Z,83.55
2023-01-27T06:54:26.102Z,83.45
2023-01-27T06:55:29.236Z,83.13
2023-01-27T06:56:31.890Z,83.20
2023-01-27T06:57:33.443Z,83.52
2023-01-27T06:58:35.942Z,83.59
2023-01-27T06:59:38.227Z,83.52
2023-01-27T07:00:42.200Z,83.31
2023-01-27T07:01:44.064Z,83.13
2023-01-27T07:02:46.643Z,83.16
2023-01-27T07:03:48.206Z,83.51
2023-01-27T07:04:50.699Z,83.49
2023-01-27T07:05:53.436Z,83.39
2023-01-27T07:07:06.170Z,83.15
2023-01-27T07:08:09.445Z,83.25
2023-01-27T07:09:12.349Z,83.40
2023-01-27T07:10:15.273Z,83.47
2023-01-27T07:11:18.240Z,83.43
2023-01-27T07:12:22.293Z,83.64
2023-01-27T07:13:24.795Z,83.56
2023-01-27T07:14:26.586Z,83.26
2023-01-27T07:15:30.585Z,83.34
2023-01-27T07:16:33.205Z,83.40
2023-01-27T07:17:41.984Z,83.18
2023-01-27T07:18:47.510Z,83.58
2023-01-27T07:19:49.075Z,83.37
2023-01-27T07:20:51.548Z,83.16
2023-01-27T07:21:53.058Z,83.50
2023-01-27T07:22:57.775Z,83.34
2023-01-27T07:23:59.724Z,83.30
2023-01-27T07:25:03.917Z,83.25
2023-01-27T07:26:19.175Z,83.53
2023-01-27T07:27:27.115Z,83.39
2023-01-27T07:28:29.723Z,83.51
2023-01-27T07:29:31.658Z,83.44
2023-01-27T07:30:44.292Z,83.28
2023-01-27T07:31:46.396Z,83.50
2023-01-27T07:32:50.441Z,83.23
2023-01-27T07:33:53.430Z,83.34
2023-01-27T07:34:57.412Z,83.38
2023-01-27T07:36:00.098Z,83.49
2023-01-27T07:37:01.744Z,83.18
2023-01-27T07:38:04.627Z,83.49
2023-01-27T07:39:06.225Z,82.96
2023-01-27T07:40:13.505Z,83.30
2023-01-27T07:41:20.062Z,83.39
2023-01-27T07:42:22.602Z,83.06
2023-01-27T07:43:24.794Z,83.25
2023-01-27T07:44:27.270Z,83.27
2023-01-27T07:45:30.088Z,83.08
2023-01-27T07:46:31.930Z,82.82
2023-01-27T07:47:34.421Z,83.17
2023-01-27T07:48:35.930Z,82.91
2023-01-27T07:49:38.412Z,82.89
2023-01-27T07:50:41.670Z,82.74
2023-01-27T07:51:43.294Z,82.94
2023-01-27T07:52:45.819Z,82.73
2023-01-27T07:53:47.975Z,82.92
2023-01-27T07:54:50.599Z,82.73
2023-01-27T07:55:53.533Z,82.71
2023-01-27T07:56:56.173Z,82.94
2023-01-27T07:58:05.288Z,82.72
2023-01-27T07:59:17.787Z,82.80
2023-01-27T08:00:21.651Z,82.93
2023-01-27T08:01:30.361Z,82.73
2023-01-27T08:02:35.280Z,82.86
2023-01-27T08:03:39.951Z,83.09
2023-01-27T08:04:52.433Z,82.71
2023-01-27T08:05:55.654Z,83.04
2023-01-27T08:06:58.163Z,82.88
2023-01-27T08:08:08.130Z,82.63
2023-01-27T08:09:10.615Z,82.82
2023-01-27T08:10:12.485Z,82.79
2023-01-27T08:11:17.081Z,82.61
2023-01-27T08:12:19.786Z,82.68
2023-01-27T08:13:27.172Z,82.78
2023-01-27T08:14:39.715Z,82.51
2023-01-27T08:15:41.607Z,82.69
2023-01-27T08:16:44.187Z,82.69
2023-01-27T08:17:53.221Z,82.89
2023-01-27T08:19:00.960Z,82.80
2023-01-27T08:20:03.250Z,82.44
2023-01-27T08:21:08.321Z,82.64
2023-01-27T08:22:10.807Z,82.67
2023-01-27T08:23:12.324Z,82.59
2023-01-27T08:24:18.587Z,82.64
2023-01-27T08:25:21.034Z,82.63
2023-01-27T08:26:24.895Z,82.68
2023-01-27T08:27:26.370Z,82.64
2023-01-27T08:28:31.441Z,82.81
2023-01-27T08:29:35.957Z,82.46
2023-01-27T08:30:37.546Z,82.63
2023-01-27T08:31:41.752Z,82.62
2023-01-27T08:32:43.618Z,82.32
2023-01-27T08:33:50.583Z,82.32
2023-01-27T08:34:53.299Z,82.24
2023-01-27T08:35:59.626Z,82.54
2023-01-27T08:37:04.327Z,82.07
2023-01-27T08:38:07.176Z,82.03
2023-01-27T08:39:09.552Z,82.41
2023-01-27T08:40:15.337Z,82.08
2023-01-27T08:41:19.490Z,81.90
2023-01-27T08:42:33.171Z,81.82
2023-01-27T08:43:36.199Z,81.73
2023-01-27T08:44:38.746Z,81.82
2023-01-27T08:45:40.293Z,82.05
2023-01-27T08:46:42.867Z,81.87
2023-01-27T08:47:46.900Z,82.08
2023-01-27T08:48:58.416Z,81.59
2023-01-27T08:50:00.885Z,81.68
2023-01-27T08:51:02.787Z,81.65
2023-01-27T08:52:05.440Z,81.60
2023-01-27T08:53:07.030Z,81.83
2023-01-27T08:54:10.663Z,81.85
2023-01-27T08:55:22.654Z,81.68
2023-01-27T08:56:25.225Z,81.46
2023-01-27T08:57:26.837Z,81.84
2023-01-27T08:58:30.686Z,81.49
2023-01-27T08:59:33.195Z,81.39
2023-01-27T09:00:35.069Z,81.30
2023-01-27T09:01:38.569Z,81.49
2023-01-27T09:02:50.755Z,81.12
2023-01-27T09:03:54.971Z,81.13
2023-01-27T09:04:56.523Z,81.46
2023-01-27T09:05:59.179Z,81.15
2023-01-27T09:07:01.686Z,81.38
2023-01-27T09:08:14.568Z,81.37
2023-01-27T09:09:17.169Z,80.94
2023-01-27T09:10:19.748Z,81.24
2023-01-27T09:11:21.301Z,81.18
2023-01-27T09:12:23.771Z,81.36
2023-01-27T09:13:37.636Z,81.27
2023-01-27T09:14:40.129Z,81.26
2023-01-27T09:15:43.713Z,80.80
2023-01-27T09:16:46.267Z,80.85
2023-01-27T09:17:48.737Z,80.96
2023-01-27T09:18:50.303Z,80.82
2023-01-27T09:19:53.282Z,80.88
2023-01-27T09:20:56.093Z,81.01
2023-01-27T09:22:00.986Z,81.19
2023-01-27T09:23:03.977Z,80.88
2023-01-27T09:24:05.745Z,80.67
2023-01-27T09:25:09.554Z,80.68
2023-01-27T09:26:12.038Z,80.94
2023-01-27T09:27:13.580Z,80.46
2023-01-27T09:28:18.851Z,80.84
2023-01-27T09:29:21.751Z,80.79
2023-01-27T09:30:25.921Z,80.68
2023-01-27T09:31:28.069Z,80.33
2023-01-27T09:32:31.125Z,80.65
2023-01-27T09:33:33.687Z,80.26
2023-01-27T09:34:36.664Z,80.72
2023-01-27T09:35:44.589Z,80.60
2023-01-27T09:36:51.238Z,80.40
2023-01-27T09:37:57.635Z,80.67
2023-01-27T09:39:03.535Z,80.79
2023-01-27T09:40:14.547Z,80.51
2023-01-27T09:41:47.530Z,80.68
2023-01-27T09:43:26.503Z,80.49
2023-01-27T09:44:52.581Z,80.52
2023-01-27T09:46:20.528Z,80.21
2023-01-27T09:47:41.887Z,80.45
2023-01-27T09:49:10.421Z,80.57
2023-01-27T09:50:38.977Z,80.27
2023-01-27T09:51:54.568Z,80.64
2023-01-27T09:53:25.578Z,80.16
2023-01-27T09:54:48.254Z,80.12
2023-01-27T09:55:55.413Z,80.47
2023-01-27T09:57:10.304Z,80.18
2023-01-27T09:58:24.762Z,80.20
2023-01-27T09:59:44.768Z,80.04
2023-01-27T10:00:57.065Z,80.21
2023-01-27T10:02:13.510Z,80.43
2023-01-27T10:03:28.311Z,80.24
2023-01-27T10:05:01.055Z,80.29
2023-01-27T10:06:19.916Z,79.90
2023-01-27T10:07:51.291Z,80.12
2023-01-27T10:09:35.074Z,80.23
